Time;durP1;ratioP1;P1;durP2;ratioP2;P2;SDS_P1;SDS_P2;PMS_P1;PMS_P2;Temp;Humidity;BMP_temperature;BMP_pressure;BME280_temperature;BME280_humidity;BME280_pressure;Samples;Min_cycle;Max_cycle;Signal;HPM_P1;HPM_P2
2022/07/06 00:01:24;;;;;;;0.85;0.73;;;;;;;14.13;83.37;102473.84;5024319;28;20044;-76
2022/07/06 00:03:49;;;;;;;1.38;0.60;;;;;;;14.14;83.42;102472.94;5024149;28;20405;-75
2022/07/06 00:06:16;;;;;;;3.72;1.05;;;;;;;14.12;83.58;102472.97;5023304;28;20028;-76
2022/07/06 00:08:43;;;;;;;1.65;0.60;;;;;;;14.11;83.19;102476.56;5023417;28;20037;-76
2022/07/06 00:11:08;;;;;;;1.38;1.02;;;;;;;14.11;83.45;102470.41;5023956;28;20040;-76
2022/07/06 00:13:34;;;;;;;3.20;1.02;;;;;;;14.11;83.58;102473.06;5022578;28;20084;-76
2022/07/06 00:16:00;;;;;;;2.15;0.80;;;;;;;14.12;83.35;102474.78;5022841;28;20085;-75
2022/07/06 00:18:25;;;;;;;2.83;0.90;;;;;;;14.10;83.38;102471.28;5022855;28;20029;-76
2022/07/06 00:20:51;;;;;;;1.65;0.85;;;;;;;14.08;83.30;102474.03;5024535;28;20037;-74
2022/07/06 00:23:17;;;;;;;1.80;0.80;;;;;;;14.09;83.15;102461.56;5023898;28;20029;-75
2022/07/06 00:25:42;;;;;;;3.30;0.77;;;;;;;14.08;83.13;102458.06;5024431;28;20030;-75
2022/07/06 00:28:08;;;;;;;2.95;0.82;;;;;;;14.07;83.25;102458.97;5023320;28;21964;-77
2022/07/06 00:30:33;;;;;;;1.38;0.90;;;;;;;14.09;83.33;102458.91;5023174;28;20669;-77
2022/07/06 00:32:59;;;;;;;0.85;0.60;;;;;;;14.09;83.21;102465.09;5021690;28;20049;-77
2022/07/06 00:35:25;;;;;;;3.47;0.60;;;;;;;14.08;83.43;102460.72;5023540;28;20041;-77
2022/07/06 00:37:51;;;;;;;2.38;0.70;;;;;;;14.08;83.34;102454.50;5006080;28;20037;-76
2022/07/06 00:40:17;;;;;;;4.50;0.70;;;;;;;14.09;83.22;102465.09;5018009;28;20036;-77
2022/07/06 00:42:45;;;;;;;0.65;0.63;;;;;;;14.09;83.15;102458.91;5024571;28;20163;-76
2022/07/06 00:45:11;;;;;;;2.47;0.73;;;;;;;14.07;83.06;102463.41;5022430;28;20033;-76
2022/07/06 00:47:38;;;;;;;1.00;0.60;;;;;;;14.07;82.88;102466.97;5017896;28;20393;-75
2022/07/06 00:50:14;;;;;;;0.85;0.50;;;;;;;14.06;82.78;102454.53;5022774;28;20044;-75
2022/07/06 00:52:45;;;;;;;2.72;0.88;;;;;;;14.07;82.96;102460.75;5007821;28;20032;-76
2022/07/06 00:55:12;;;;;;;1.77;0.70;;;;;;;14.09;82.63;102456.22;4983712;28;20128;-75
2022/07/06 00:57:39;;;;;;;0.82;0.57;;;;;;;14.06;82.75;102459.88;5018446;28;20061;-76
2022/07/06 01:00:07;;;;;;;1.10;0.77;;;;;;;14.06;83.24;102459.03;5023163;28;20029;-76
2022/07/06 01:02:33;;;;;;;3.63;0.80;;;;;;;14.05;83.31;102465.28;5024124;28;20033;-76
2022/07/06 01:05:00;;;;;;;1.33;0.70;;;;;;;14.05;83.03;102457.28;5001801;28;20065;-76
2022/07/06 01:07:26;;;;;;;1.40;0.90;;;;;;;14.04;82.99;102460.84;5034050;28;20037;-76
2022/07/06 01:09:51;;;;;;;0.95;0.68;;;;;;;14.05;83.30;102465.28;5023829;28;20516;-75
2022/07/06 01:12:17;;;;;;;2.63;0.75;;;;;;;14.04;83.25;102460.84;5023564;28;20403;-75
2022/07/06 01:14:43;;;;;;;1.35;0.77;;;;;;;14.05;83.08;102454.63;5017782;28;20396;-75
2022/07/06 01:17:09;;;;;;;1.15;0.75;;;;;;;14.04;83.42;102456.41;5023438;28;20029;-75
2022/07/06 01:19:34;;;;;;;0.70;0.70;;;;;;;14.03;83.21;102454.66;5023727;28;20502;-75
2022/07/06 01:22:00;;;;;;;0.60;0.60;;;;;;;14.04;83.25;102450.19;5023451;28;20418;-75
2022/07/06 01:24:26;;;;;;;1.42;0.50;;;;;;;14.03;83.07;102448.47;5022788;28;20121;-75
2022/07/06 01:26:52;;;;;;;0.57;0.52;;;;;;;14.03;83.04;102456.44;5023793;28;20029;-76
2022/07/06 01:29:18;;;;;;;1.58;0.63;;;;;;;14.03;83.20;102456.44;5000488;28;21495;-76
2022/07/06 01:31:50;;;;;;;1.20;0.60;;;;;;;14.03;83.33;102461.78;5033623;28;20048;-76
2022/07/06 01:34:17;;;;;;;1.98;0.70;;;;;;;14.03;83.29;102462.66;5021927;28;20036;-75
2022/07/06 01:36:43;;;;;;;0.52;0.52;;;;;;;14.04;83.22;102467.06;5025267;28;20033;-76
2022/07/06 01:39:09;;;;;;;0.40;0.40;;;;;;;14.02;82.59;102454.72;5025655;28;20055;-76
2022/07/06 01:41:34;;;;;;;1.95;0.60;;;;;;;14.01;83.04;102450.31;5026951;28;20509;-76
2022/07/06 01:44:01;;;;;;;1.20;0.52;;;;;;;14.00;83.01;102454.75;5025939;28;20069;-76
2022/07/06 01:46:26;;;;;;;1.65;0.73;;;;;;;13.99;82.72;102451.25;5026235;28;20048;-75
2022/07/06 01:48:52;;;;;;;0.47;0.47;;;;;;;14.01;82.88;102453.84;5020841;28;20032;-75
2022/07/06 01:51:17;;;;;;;1.75;0.50;;;;;;;13.99;82.84;102450.34;5026409;28;20083;-75
2022/07/06 01:53:43;;;;;;;1.40;0.60;;;;;;;13.98;82.66;102452.16;5021065;28;20264;-75
2022/07/06 01:56:09;;;;;;;1.05;0.65;;;;;;;13.97;82.54;102452.22;5021317;28;20037;-76
2022/07/06 01:58:35;;;;;;;0.82;0.70;;;;;;;13.96;82.68;102456.66;5026340;28;20037;-76
2022/07/06 02:01:00;;;;;;;0.50;0.50;;;;;;;13.95;82.63;102462.06;5025071;28;20061;-75
2022/07/06 02:03:26;;;;;;;1.50;0.70;;;;;;;13.94;83.00;102458.50;5023121;28;20134;-76
2022/07/06 02:05:51;;;;;;;1.08;0.55;;;;;;;13.95;82.76;102452.25;5025526;28;20033;-76
2022/07/06 02:08:18;;;;;;;1.35;0.50;;;;;;;13.97;82.74;102452.22;5026707;28;20044;-77
2022/07/06 02:10:43;;;;;;;2.28;0.55;;;;;;;13.99;82.91;102459.22;5004066;28;20144;-76
2022/07/06 02:13:09;;;;;;;0.80;0.40;;;;;;;13.98;82.95;102454.84;5024707;28;20500;-76
2022/07/06 02:15:34;;;;;;;3.63;0.60;;;;;;;13.99;82.90;102458.34;5025488;28;20040;-76
2022/07/06 02:18:00;;;;;;;0.75;0.60;;;;;;;13.98;82.93;102454.84;5026005;28;20025;-76
2022/07/06 02:20:25;;;;;;;0.50;0.50;;;;;;;13.98;83.16;102451.28;5025825;28;20043;-76
2022/07/06 02:22:51;;;;;;;1.30;0.60;;;;;;;13.98;83.13;102456.59;5003150;28;20032;-76
2022/07/06 02:25:16;;;;;;;0.80;0.60;;;;;;;13.97;83.32;102458.41;5025654;28;20040;-76
2022/07/06 02:27:42;;;;;;;1.55;0.60;;;;;;;13.96;83.53;102459.31;5023800;28;20140;-76
2022/07/06 02:30:08;;;;;;;3.03;0.70;;;;;;;13.95;83.45;102462.91;5026655;28;20033;-76
2022/07/06 02:32:33;;;;;;;1.92;0.57;;;;;;;13.94;83.74;102461.16;5023320;28;20084;-76
2022/07/06 02:34:59;;;;;;;0.60;0.60;;;;;;;13.93;83.71;102454.09;5025474;28;20035;-76
2022/07/06 02:37:24;;;;;;;1.13;1.02;;;;;;;13.93;83.75;102467.41;5026567;28;20041;-76
2022/07/06 02:39:50;;;;;;;1.10;0.60;;;;;;;13.92;83.68;102465.69;5025212;28;20030;-76
2022/07/06 02:42:16;;;;;;;0.50;0.50;;;;;;;13.90;83.89;102462.19;5025996;28;20049;-76
2022/07/06 02:44:41;;;;;;;0.85;0.68;;;;;;;13.89;84.01;102460.44;5008384;28;20052;-76
2022/07/06 02:47:07;;;;;;;1.60;0.70;;;;;;;13.87;83.83;102456.97;5025555;28;20036;-76
2022/07/06 02:49:35;;;;;;;0.40;0.40;;;;;;;13.85;83.91;102461.50;5025582;28;20087;-76
2022/07/06 02:52:00;;;;;;;1.27;0.50;;;;;;;13.83;84.09;102458.88;5026015;28;20046;-76
2022/07/06 02:54:26;;;;;;;0.82;0.40;;;;;;;13.83;84.03;102458.00;5024455;28;21279;-76
2022/07/06 02:56:52;;;;;;;0.43;0.43;;;;;;;13.83;83.86;102466.88;5019333;28;20167;-76
2022/07/06 02:59:19;;;;;;;2.63;0.60;;;;;;;13.83;83.98;102460.66;5008495;28;20029;-76
2022/07/06 03:01:45;;;;;;;0.30;0.30;;;;;;;13.82;83.79;102448.28;5022072;28;20488;-76
2022/07/06 03:04:10;;;;;;;0.50;0.50;;;;;;;13.79;83.21;102449.25;5019165;28;20040;-75
2022/07/06 03:06:36;;;;;;;1.55;0.50;;;;;;;13.76;83.19;102456.47;5006786;28;20115;-76
2022/07/06 03:09:02;;;;;;;2.13;0.60;;;;;;;13.73;83.09;102459.22;5024922;28;20103;-76
2022/07/06 03:11:27;;;;;;;1.67;0.60;;;;;;;13.68;82.84;102452.25;5025243;28;20305;-76
2022/07/06 03:13:53;;;;;;;3.33;0.63;;;;;;;13.63;82.56;102454.22;5024457;28;20049;-76
2022/07/06 03:16:19;;;;;;;0.77;0.50;;;;;;;13.57;82.46;102462.41;5025435;28;20052;-76
2022/07/06 03:18:44;;;;;;;2.47;0.55;;;;;;;13.52;82.63;102456.34;5002797;28;20033;-76
2022/07/06 03:21:10;;;;;;;1.42;0.52;;;;;;;13.48;82.75;102462.69;5035857;28;20036;-76
2022/07/06 03:23:35;;;;;;;1.13;0.50;;;;;;;13.44;82.77;102464.53;5023966;28;20020;-75
2022/07/06 03:26:01;;;;;;;0.50;0.50;;;;;;;13.39;83.13;102456.72;5025438;28;20032;-75
2022/07/06 03:28:27;;;;;;;1.05;0.50;;;;;;;13.35;82.77;102464.84;5025186;28;20049;-74
2022/07/06 03:30:52;;;;;;;1.95;0.50;;;;;;;13.32;82.95;102460.47;5024118;28;20033;-74
2022/07/06 03:33:19;;;;;;;0.63;0.60;;;;;;;13.27;82.66;102459.75;5025381;28;20041;-73
2022/07/06 03:35:44;;;;;;;1.45;0.45;;;;;;;13.22;83.06;102465.22;5024540;28;20045;-75
2022/07/06 03:38:10;;;;;;;1.35;0.65;;;;;;;13.21;82.80;102462.59;5024945;28;20018;-75
2022/07/06 03:40:35;;;;;;;1.75;0.60;;;;;;;13.15;83.16;102459.22;5024960;28;20029;-74
2022/07/06 03:43:03;;;;;;;0.95;0.47;;;;;;;13.11;83.51;102456.69;5022586;28;20564;-75
2022/07/06 03:45:30;;;;;;;2.33;0.63;;;;;;;13.08;83.39;102462.13;5024736;28;20043;-75
2022/07/06 03:47:56;;;;;;;0.85;0.50;;;;;;;13.02;83.16;102464.03;5022911;28;20103;-76
2022/07/06 03:50:21;;;;;;;3.45;0.63;;;;;;;12.99;83.37;102463.25;5025056;28;20028;-76
2022/07/06 03:52:47;;;;;;;0.50;0.50;;;;;;;12.92;83.52;102462.59;5022554;28;20181;-75
2022/07/06 03:55:13;;;;;;;0.73;0.50;;;;;;;12.90;83.56;102469.72;5024418;28;20123;-76
2022/07/06 03:57:40;;;;;;;4.20;1.00;;;;;;;12.86;83.84;102471.59;5023958;28;20033;-76
2022/07/06 04:00:07;;;;;;;1.00;0.68;;;;;;;12.83;84.07;102470.81;5022839;28;20033;-76
2022/07/06 04:02:33;;;;;;;0.60;0.60;;;;;;;12.80;83.99;102469.09;5024518;28;20032;-76
2022/07/06 04:04:58;;;;;;;0.73;0.63;;;;;;;12.78;84.13;102462.97;5022834;28;20684;-76
2022/07/06 04:07:25;;;;;;;1.23;0.70;;;;;;;12.76;84.14;102456.84;5024231;28;20045;-76
2022/07/06 04:09:50;;;;;;;0.70;0.70;;;;;;;12.73;84.19;102460.47;5024129;28;20643;-75
2022/07/06 04:12:16;;;;;;;3.63;0.93;;;;;;;12.74;84.14;102458.66;5023220;28;20045;-76
2022/07/06 04:14:42;;;;;;;2.05;0.90;;;;;;;12.72;83.96;102473.78;5023826;28;20041;-76
2022/07/06 04:20:11;;;;;;;1.42;0.80;;;;;;;12.72;84.12;102466.69;5055193;28;20087;-76
2022/07/06 04:22:38;;;;;;;1.88;0.77;;;;;;;12.73;84.40;102481.72;5038340;28;20138;-76
2022/07/06 04:25:04;;;;;;;1.55;0.60;;;;;;;12.76;84.16;102486.06;5039471;28;20044;-75
2022/07/06 04:27:30;;;;;;;2.50;0.68;;;;;;;12.78;84.56;102476.25;5055591;28;20127;-75
2022/07/06 04:29:55;;;;;;;2.40;0.80;;;;;;;12.80;84.56;102474.41;5056054;28;20046;-75
2022/07/06 04:32:21;;;;;;;2.35;0.70;;;;;;;12.82;84.29;102472.63;5021050;28;20511;-75
2022/07/06 04:34:47;;;;;;;2.15;0.63;;;;;;;12.86;84.07;102478.72;5055692;28;20502;-75
2022/07/06 04:37:12;;;;;;;1.63;0.80;;;;;;;12.88;84.07;102477.75;5039070;28;20048;-75
2022/07/06 04:39:38;;;;;;;1.10;0.68;;;;;;;12.90;84.34;102470.59;5054066;28;20567;-75
2022/07/06 04:42:04;;;;;;;0.80;0.80;;;;;;;12.91;84.05;102466.13;5055159;28;20029;-75
2022/07/06 04:44:29;;;;;;;2.03;0.80;;;;;;;12.97;84.20;102467.75;5042143;28;20469;-75
2022/07/06 04:46:55;;;;;;;1.17;0.70;;;;;;;12.98;84.31;102467.72;5055959;28;20052;-75
2022/07/06 04:49:20;;;;;;;2.95;0.80;;;;;;;13.02;84.03;102469.34;5056537;28;20085;-75
2022/07/06 04:51:46;;;;;;;1.25;0.70;;;;;;;13.06;84.06;102471.94;5032937;28;20053;-75
2022/07/06 04:54:11;;;;;;;1.48;0.80;;;;;;;13.09;84.32;102478.03;5027035;28;20078;-75
2022/07/06 04:56:37;;;;;;;0.60;0.60;;;;;;;13.12;84.24;102479.69;5024036;28;20484;-75
2022/07/06 04:59:02;;;;;;;2.00;0.60;;;;;;;13.16;84.60;102481.34;5024879;28;20028;-75
2022/07/06 05:01:28;;;;;;;1.67;0.63;;;;;;;13.17;84.52;102477.78;5021551;28;20032;-76
2022/07/06 05:03:53;;;;;;;1.30;0.63;;;;;;;13.19;84.82;102481.28;5024176;28;20059;-75
2022/07/06 05:06:19;;;;;;;0.80;0.60;;;;;;;13.22;84.46;102474.97;5025635;28;20433;-75
2022/07/06 05:08:45;;;;;;;3.67;0.90;;;;;;;13.24;84.79;102479.31;5022865;28;20427;-76
2022/07/06 05:11:11;;;;;;;2.60;0.70;;;;;;;13.27;84.77;102484.56;5024970;28;20041;-76
2022/07/06 05:13:37;;;;;;;0.60;0.60;;;;;;;13.32;84.73;102484.41;5026889;28;20049;-75
2022/07/06 05:16:02;;;;;;;2.88;0.60;;;;;;;13.34;84.89;102479.91;5027971;28;20044;-74
2022/07/06 05:18:28;;;;;;;5.90;0.63;;;;;;;13.37;84.76;102482.50;5025792;28;20039;-75
2022/07/06 05:20:53;;;;;;;2.28;0.68;;;;;;;13.41;85.12;102475.28;5026482;28;20060;-76
2022/07/06 05:23:19;;;;;;;0.70;0.70;;;;;;;13.47;84.74;102479.56;5025327;28;20036;-75
2022/07/06 05:25:47;;;;;;;1.25;0.70;;;;;;;13.49;85.16;102472.41;5026938;28;20092;-76
2022/07/06 05:28:13;;;;;;;2.40;1.00;;;;;;;13.54;85.25;102482.00;5026565;28;20037;-78
2022/07/06 05:30:39;;;;;;;2.30;0.82;;;;;;;13.60;85.61;102480.03;5026299;28;20393;-76
2022/07/06 05:33:04;;;;;;;2.97;1.10;;;;;;;13.65;85.23;102479.00;5027182;28;20518;-75
2022/07/06 05:35:30;;;;;;;1.00;0.70;;;;;;;13.70;85.83;102477.06;5028288;28;20471;-75
2022/07/06 05:37:55;;;;;;;2.42;0.85;;;;;;;13.80;85.24;102484.72;5024650;28;20033;-75
2022/07/06 05:40:21;;;;;;;2.70;0.80;;;;;;;13.90;85.09;102478.16;5027388;28;20120;-75
2022/07/06 05:42:47;;;;;;;1.20;0.50;;;;;;;13.99;85.34;102482.31;5026910;28;21043;-75
2022/07/06 05:45:13;;;;;;;0.50;0.40;;;;;;;14.06;84.96;102472.34;5027489;28;20646;-75
2022/07/06 05:50:23;;;;;;;0.95;0.40;;;;;;;14.24;84.56;102477.03;5027962;28;20078;-76
2022/07/06 05:52:57;;;;;;;1.23;0.40;;;;;;;14.34;84.32;102482.03;5024790;28;20480;-76
2022/07/06 05:55:23;;;;;;;1.63;0.50;;;;;;;14.41;83.68;102480.88;5004557;28;20447;-76
2022/07/06 05:57:50;;;;;;;0.80;0.40;;;;;;;14.46;83.41;102478.03;5027065;28;20048;-76
2022/07/06 06:00:16;;;;;;;1.65;0.45;;;;;;;14.50;82.99;102482.34;5026496;28;20086;-74
2022/07/06 06:02:42;;;;;;;0.85;0.43;;;;;;;14.52;83.05;102488.50;5025597;28;20045;-76
2022/07/06 06:05:09;;;;;;;1.58;0.50;;;;;;;14.55;83.04;102495.50;5025482;28;20094;-76
2022/07/06 06:07:35;;;;;;;0.50;0.40;;;;;;;14.60;83.21;102497.06;5026664;28;20111;-76
2022/07/06 06:10:05;;;;;;;1.75;0.50;;;;;;;14.77;83.18;102484.97;5037213;28;20033;-75
2022/07/06 06:12:32;;;;;;;0.50;0.40;;;;;;;14.89;82.84;102494.28;5026389;28;20485;-76
2022/07/06 06:14:57;;;;;;;1.85;0.47;;;;;;;15.01;82.41;102496.50;5026892;28;20052;-76
2022/07/06 06:17:23;;;;;;;1.60;0.45;;;;;;;15.21;82.36;102495.72;5026374;28;20049;-76
2022/07/06 06:19:48;;;;;;;1.15;0.60;;;;;;;15.44;81.68;102495.75;5024352;28;20124;-75
2022/07/06 06:22:14;;;;;;;0.85;0.50;;;;;;;15.64;81.11;102502.09;5025193;28;20066;-74
2022/07/06 06:24:40;;;;;;;0.80;0.40;;;;;;;15.88;80.74;102508.22;5026379;28;20034;-76
2022/07/06 06:27:06;;;;;;;0.82;0.50;;;;;;;16.08;79.79;102510.06;5024319;28;20978;-77
2022/07/06 06:29:37;;;;;;;1.42;0.50;;;;;;;16.27;79.44;102518.19;5026112;28;20075;-76
2022/07/06 06:32:05;;;;;;;2.25;0.60;;;;;;;16.46;78.79;102511.16;5025683;28;21017;-77
2022/07/06 06:34:31;;;;;;;1.10;0.50;;;;;;;16.57;78.78;102514.25;5023429;28;20230;-77
2022/07/06 06:36:57;;;;;;;1.80;0.60;;;;;;;16.64;77.79;102514.81;5026783;28;20039;-78
2022/07/06 06:39:23;;;;;;;1.08;0.50;;;;;;;16.72;77.67;102518.00;5036527;28;20377;-77
2022/07/06 06:41:48;;;;;;;0.30;0.30;;;;;;;16.83;76.58;102517.53;5004268;28;20457;-77
2022/07/06 06:44:17;;;;;;;1.35;0.32;;;;;;;16.93;76.05;102518.84;5025730;28;20032;-77
2022/07/06 06:46:43;;;;;;;0.60;0.60;;;;;;;16.96;76.10;102516.03;5026821;28;20025;-76
2022/07/06 06:49:09;;;;;;;0.43;0.40;;;;;;;17.04;75.88;102520.19;5025438;28;20520;-75
2022/07/06 06:51:35;;;;;;;0.30;0.30;;;;;;;17.19;75.74;102522.16;5024078;28;20036;-77
2022/07/06 06:54:00;;;;;;;0.40;0.40;;;;;;;17.34;75.02;102514.34;5007812;28;20158;-76
2022/07/06 06:56:26;;;;;;;3.45;0.43;;;;;;;17.43;73.49;102513.88;5025186;28;21074;-78
2022/07/06 06:58:51;;;;;;;2.42;0.60;;;;;;;17.53;73.39;102513.47;5024216;28;20029;-75
2022/07/06 07:01:17;;;;;;;0.22;0.22;;;;;;;17.67;73.38;102515.44;5026029;28;20037;-77
2022/07/06 07:03:42;;;;;;;0.68;0.40;;;;;;;17.85;73.35;102513.66;5024832;28;20051;-76
2022/07/06 07:06:08;;;;;;;0.73;0.50;;;;;;;17.96;72.67;102516.69;5024200;28;20071;-76
2022/07/06 07:08:33;;;;;;;1.90;0.40;;;;;;;18.00;72.34;102512.91;5023372;28;20102;-75
2022/07/06 07:10:59;;;;;;;1.00;0.40;;;;;;;17.97;71.74;102513.06;5026055;28;20082;-76
2022/07/06 07:13:24;;;;;;;0.45;0.30;;;;;;;18.00;71.81;102515.59;5024846;28;20057;-76
2022/07/06 07:15:50;;;;;;;1.65;0.50;;;;;;;18.07;71.54;102518.00;5025602;28;20044;-75
2022/07/06 07:18:16;;;;;;;2.15;0.50;;;;;;;18.08;70.54;102514.38;5007344;28;20027;-75
2022/07/06 07:20:42;;;;;;;1.95;0.50;;;;;;;17.99;70.56;102516.53;5002857;28;20072;-74
2022/07/06 07:23:07;;;;;;;0.85;0.43;;;;;;;17.91;70.79;102513.34;5025690;28;20372;-74
2022/07/06 07:25:33;;;;;;;0.30;0.30;;;;;;;17.92;69.92;102510.59;5024876;28;20044;-75
2022/07/06 07:27:58;;;;;;;2.00;0.55;;;;;;;17.88;69.50;102518.88;5025060;28;20371;-75
2022/07/06 07:30:27;;;;;;;0.43;0.40;;;;;;;17.82;70.43;102513.81;5023825;28;20052;-75
2022/07/06 07:32:52;;;;;;;0.40;0.40;;;;;;;17.72;70.17;102519.66;5023513;28;20044;-75
2022/07/06 07:35:18;;;;;;;2.05;0.47;;;;;;;17.62;70.15;102521.03;5022848;28;20052;-75
2022/07/06 07:37:43;;;;;;;0.38;0.38;;;;;;;17.64;70.57;102516.47;5023666;28;20025;-76
2022/07/06 07:40:09;;;;;;;0.63;0.50;;;;;;;17.77;70.17;102520.28;5025142;28;20377;-75
2022/07/06 07:42:35;;;;;;;0.57;0.30;;;;;;;17.94;69.35;102515.91;5023908;28;20096;-77
2022/07/06 07:45:00;;;;;;;0.63;0.28;;;;;;;17.99;69.20;102521.91;5019134;28;20041;-76
2022/07/06 07:47:26;;;;;;;0.45;0.45;;;;;;;17.92;68.85;102526.69;5026949;28;20666;-74
2022/07/06 07:49:52;;;;;;;1.35;0.40;;;;;;;17.75;69.16;102522.16;5029437;28;20025;-77
2022/07/06 07:52:17;;;;;;;0.40;0.40;;;;;;;17.66;69.96;102525.31;5027112;28;20037;-74
2022/07/06 07:54:43;;;;;;;0.32;0.30;;;;;;;17.86;70.18;102518.94;5025538;28;20029;-75
2022/07/06 07:57:09;;;;;;;0.40;0.40;;;;;;;18.12;69.80;102516.81;5024751;28;20044;-74
2022/07/06 07:59:34;;;;;;;0.32;0.30;;;;;;;18.38;69.27;102511.03;5024910;28;20033;-76
2022/07/06 08:02:00;;;;;;;0.77;0.52;;;;;;;18.51;66.49;102522.84;5023070;28;20052;-74
2022/07/06 08:04:26;;;;;;;1.15;0.60;;;;;;;18.44;67.40;102522.31;5024477;28;20045;-76
2022/07/06 08:06:51;;;;;;;1.88;0.45;;;;;;;18.28;66.86;102521.38;5022119;28;20025;-75
2022/07/06 08:09:17;;;;;;;0.30;0.30;;;;;;;18.13;65.89;102531.06;5024936;28;20043;-75
2022/07/06 08:11:43;;;;;;;0.43;0.40;;;;;;;18.11;65.55;102524.91;5023959;28;20052;-76
2022/07/06 08:14:09;;;;;;;1.55;0.35;;;;;;;18.32;66.33;102515.75;5023035;28;20759;-76
2022/07/06 08:16:35;;;;;;;1.25;0.40;;;;;;;18.55;66.09;102510.13;5022782;28;20041;-77
2022/07/06 08:19:00;;;;;;;0.35;0.20;;;;;;;18.79;66.24;102520.53;5022537;28;20117;-76
2022/07/06 08:21:26;;;;;;;0.32;0.32;;;;;;;18.99;65.78;102517.63;5024594;28;20112;-74
2022/07/06 08:23:53;;;;;;;2.55;0.30;;;;;;;19.04;65.18;102525.44;5022291;28;20391;-75
2022/07/06 08:26:19;;;;;;;1.30;0.40;;;;;;;18.92;64.72;102524.28;5024277;28;20068;-75
2022/07/06 08:28:45;;;;;;;0.82;0.35;;;;;;;18.93;64.60;102525.13;5022665;28;20748;-75
2022/07/06 08:31:11;;;;;;;0.30;0.30;;;;;;;18.97;63.71;102532.06;5022795;28;20033;-74
2022/07/06 08:33:36;;;;;;;0.50;0.40;;;;;;;18.84;63.64;102531.84;5018565;28;20041;-75
2022/07/06 08:36:02;;;;;;;0.55;0.40;;;;;;;18.62;63.82;102529.47;5023372;28;20033;-76
2022/07/06 08:38:28;;;;;;;1.42;0.50;;;;;;;18.44;64.35;102524.13;5023915;28;20103;-75
2022/07/06 08:40:57;;;;;;;2.13;0.57;;;;;;;18.39;65.12;102531.53;5024027;28;20036;-77
2022/07/06 08:43:23;;;;;;;1.20;0.57;;;;;;;18.59;66.13;102519.78;5024604;28;20042;-76
2022/07/06 08:45:50;;;;;;;0.90;0.40;;;;;;;18.86;66.56;102530.81;5026589;28;20038;-76
2022/07/06 08:48:16;;;;;;;2.17;0.50;;;;;;;19.15;66.38;102519.47;5026518;28;20119;-76
2022/07/06 08:50:42;;;;;;;2.70;0.40;;;;;;;19.29;65.36;102518.72;5010724;28;20032;-76
2022/07/06 08:53:07;;;;;;;1.65;0.43;;;;;;;19.30;65.13;102520.44;5009377;28;20036;-76
2022/07/06 08:55:33;;;;;;;2.20;0.60;;;;;;;19.10;64.36;102519.72;5028641;28;20769;-77
2022/07/06 08:57:59;;;;;;;1.25;0.50;;;;;;;18.86;65.23;102528.13;5026602;28;20095;-76
2022/07/06 09:00:25;;;;;;;1.80;0.50;;;;;;;18.60;64.98;102521.50;5027833;28;20111;-76
2022/07/06 09:02:53;;;;;;;1.65;0.50;;;;;;;18.43;65.25;102525.06;5027786;28;20072;-76
2022/07/06 09:05:21;;;;;;;1.25;0.50;;;;;;;18.43;66.02;102519.72;5025629;28;20029;-76
2022/07/06 09:07:49;;;;;;;0.30;0.30;;;;;;;18.46;64.99;102519.53;5027994;28;20160;-77
2022/07/06 09:10:19;;;;;;;0.55;0.38;;;;;;;18.58;65.85;102512.69;5027868;28;20170;-77
2022/07/06 09:12:44;;;;;;;0.52;0.30;;;;;;;18.86;67.11;102522.75;5027747;28;20079;-76
2022/07/06 09:15:10;;;;;;;0.43;0.30;;;;;;;19.05;65.71;102518.22;5021327;28;20466;-77
2022/07/06 09:17:40;;;;;;;0.30;0.30;;;;;;;19.08;63.09;102521.66;5009980;28;20379;-76
2022/07/06 09:20:10;;;;;;;1.23;0.30;;;;;;;19.07;63.68;102514.53;5027141;28;20188;-75
2022/07/06 09:22:36;;;;;;;0.50;0.30;;;;;;;19.09;64.05;102518.00;5026909;28;20090;-76
2022/07/06 09:25:09;;;;;;;0.32;0.30;;;;;;;19.07;63.51;102519.03;5028192;28;20124;-76
2022/07/06 09:27:45;;;;;;;0.73;0.40;;;;;;;19.11;64.11;102516.09;5008817;28;20807;-76
2022/07/06 09:30:12;;;;;;;0.32;0.32;;;;;;;19.28;63.90;102514.28;5009344;28;20116;-76
2022/07/06 09:32:40;;;;;;;1.17;0.30;;;;;;;19.37;62.81;102518.25;5007801;28;20041;-74
2022/07/06 09:35:06;;;;;;;1.48;0.40;;;;;;;19.46;62.92;102519.56;5027694;28;20052;-76
2022/07/06 09:37:32;;;;;;;1.50;0.40;;;;;;;19.58;60.85;102518.00;5026376;28;20041;-76
2022/07/06 09:39:58;;;;;;;0.73;0.30;;;;;;;19.75;62.06;102523.25;5027207;28;20103;-76
2022/07/06 09:42:27;;;;;;;0.30;0.30;;;;;;;19.80;60.97;102528.38;5025909;28;20033;-75
2022/07/06 09:44:53;;;;;;;0.70;0.50;;;;;;;19.66;60.61;102516.59;5025466;28;20044;-75
2022/07/06 09:47:19;;;;;;;0.45;0.45;;;;;;;19.65;61.04;102517.56;5026918;28;20521;-76
2022/07/06 09:49:47;;;;;;;0.63;0.30;;;;;;;19.68;59.58;102520.06;5026602;28;20913;-75
2022/07/06 09:52:13;;;;;;;0.75;0.45;;;;;;;19.78;60.37;102520.38;5027767;28;20120;-75
2022/07/06 09:54:40;;;;;;;2.33;0.40;;;;;;;19.79;58.49;102516.75;5008373;28;20049;-76
2022/07/06 09:57:06;;;;;;;2.20;0.40;;;;;;;19.67;59.03;102522.84;5019297;28;20372;-76
2022/07/06 09:59:35;;;;;;;1.15;0.40;;;;;;;19.70;59.47;102525.34;5027519;28;20029;-78
2022/07/06 10:02:05;;;;;;;1.13;0.57;;;;;;;19.76;58.81;102521.44;5026276;28;20102;-75
2022/07/06 10:04:34;;;;;;;0.50;0.30;;;;;;;19.77;58.79;102517.81;5025976;28;20036;-76
2022/07/06 10:07:00;;;;;;;0.80;0.38;;;;;;;19.76;58.52;102525.00;5025970;28;20033;-75
2022/07/06 10:09:28;;;;;;;0.55;0.40;;;;;;;19.73;58.54;102518.94;5003116;28;20033;-76
2022/07/06 10:12:01;;;;;;;0.30;0.30;;;;;;;19.70;58.62;102517.28;5019451;28;20060;-74
2022/07/06 10:14:32;;;;;;;1.13;0.32;;;;;;;19.77;58.99;102515.13;5024732;28;20076;-75
2022/07/06 10:16:59;;;;;;;0.63;0.32;;;;;;;19.88;59.37;102515.34;5025482;28;20124;-75
2022/07/06 10:19:25;;;;;;;1.45;0.60;;;;;;;19.97;58.69;102511.28;5025450;28;20045;-76
2022/07/06 10:21:53;;;;;;;0.95;0.32;;;;;;;20.06;58.43;102508.03;5026588;28;20040;-75
2022/07/06 10:24:20;;;;;;;0.95;0.30;;;;;;;20.21;58.63;102506.25;5023862;28;20086;-77
2022/07/06 10:26:47;;;;;;;0.90;0.60;;;;;;;20.33;57.96;102503.78;5026521;28;20041;-74
2022/07/06 10:29:13;;;;;;;0.63;0.43;;;;;;;20.36;58.17;102500.91;5019878;28;20440;-74
2022/07/06 10:31:45;;;;;;;0.43;0.43;;;;;;;20.41;57.68;102501.50;5025517;28;20037;-75
2022/07/06 10:34:13;;;;;;;1.08;0.40;;;;;;;20.54;56.44;102500.75;5019468;28;20088;-75
2022/07/06 10:36:40;;;;;;;0.40;0.30;;;;;;;20.63;56.71;102495.66;5025603;28;20028;-75
2022/07/06 10:41:51;;;;;;;0.75;0.40;;;;;;;20.65;56.40;102495.56;5027907;28;20570;-75
2022/07/06 10:44:25;;;;;;;0.60;0.60;;;;;;;20.70;56.44;102485.34;5024741;28;20033;-77
2022/07/06 10:46:52;;;;;;;0.60;0.35;;;;;;;20.64;55.69;102488.44;5026196;28;20064;-74
2022/07/06 10:49:19;;;;;;;1.00;0.38;;;;;;;20.59;55.91;102493.25;5025507;28;20095;-74
2022/07/06 10:51:44;;;;;;;0.68;0.43;;;;;;;20.54;56.86;102482.75;5025566;28;20044;-76
2022/07/06 10:54:11;;;;;;;0.82;0.40;;;;;;;20.47;56.04;102478.72;5025117;28;20037;-74
2022/07/06 10:56:39;;;;;;;1.67;0.47;;;;;;;20.43;56.52;102469.97;5024123;28;20116;-77
2022/07/06 10:59:21;;;;;;;0.63;0.30;;;;;;;20.48;57.66;102475.94;5024283;28;20029;-77
2022/07/06 11:02:13;;;;;;;1.03;0.40;;;;;;;20.49;56.12;102474.97;5024709;28;20041;-76
2022/07/06 11:04:39;;;;;;;0.20;0.20;;;;;;;20.42;56.75;102478.16;5025463;28;20561;-76
2022/07/06 11:07:10;;;;;;;0.35;0.35;;;;;;;20.29;56.55;102470.84;5025927;28;20029;-77
2022/07/06 11:09:38;;;;;;;0.40;0.32;;;;;;;20.30;57.07;102471.69;5025726;28;20057;-77
2022/07/06 11:12:18;;;;;;;0.32;0.32;;;;;;;20.38;56.54;102465.84;5024349;28;20038;-76
2022/07/06 11:14:44;;;;;;;1.35;0.43;;;;;;;20.45;56.73;102465.38;5019516;28;20041;-75
2022/07/06 11:17:11;;;;;;;0.35;0.35;;;;;;;20.46;56.28;102456.34;5022469;28;20041;-75
2022/07/06 11:19:48;;;;;;;0.60;0.35;;;;;;;20.54;54.06;102458.53;5026283;28;20049;-76
2022/07/06 11:22:15;;;;;;;0.68;0.60;;;;;;;20.60;55.73;102454.63;5023320;28;20029;-76
2022/07/06 11:24:41;;;;;;;0.47;0.47;;;;;;;20.56;56.34;102443.19;5025511;28;20056;-76
2022/07/06 11:27:08;;;;;;;0.40;0.40;;;;;;;20.57;56.29;102441.34;5025092;28;20483;-75
2022/07/06 11:29:34;;;;;;;0.30;0.30;;;;;;;20.66;56.16;102440.78;5024257;28;20098;-75